Time;durP1;ratioP1;P1;durP2;ratioP2;P2;SDS_P1;SDS_P2;PMS_P1;PMS_P2;Temp;Humidity;BMP_temperature;BMP_pressure;BME280_temperature;BME280_humidity;BME280_pressure;Samples;Min_cycle;Max_cycle;Signal;HPM_P1;HPM_P2
2022/09/23 00:00:36;;;;;;;7.30;6.60;;;8.70;99.90;;;;;;4998225;28;20199;-67
2022/09/23 00:03:03;;;;;;;6.50;5.90;;;8.70;99.90;;;;;;5007829;28;20520;-67
2022/09/23 00:05:29;;;;;;;7.87;6.20;;;8.70;99.90;;;;;;5006032;28;20896;-67
2022/09/23 00:07:55;;;;;;;7.47;6.77;;;8.60;99.90;;;;;;4999035;28;20445;-67
2022/09/23 00:10:23;;;;;;;7.37;6.70;;;8.60;99.90;;;;;;5000200;28;20451;-68
2022/09/23 00:12:49;;;;;;;7.20;6.47;;;8.60;99.90;;;;;;4998964;28;20442;-67
2022/09/23 00:15:15;;;;;;;6.70;6.10;;;8.50;99.90;;;;;;5001104;28;20499;-68
2022/09/23 00:17:41;;;;;;;7.90;5.90;;;8.50;99.90;;;;;;5002457;28;20466;-67
2022/09/23 00:20:08;;;;;;;7.10;6.40;;;8.50;99.90;;;;;;4998503;28;20443;-67
2022/09/23 00:22:35;;;;;;;6.67;6.10;;;8.50;99.90;;;;;;5001294;28;20171;-68
2022/09/23 00:25:01;;;;;;;8.03;5.93;;;8.40;99.90;;;;;;4997013;28;20466;-68
2022/09/23 00:27:28;;;;;;;6.40;5.80;;;8.40;99.90;;;;;;4998517;28;20437;-67
2022/09/23 00:29:54;;;;;;;6.77;6.03;;;8.40;99.90;;;;;;5001657;28;20462;-67
2022/09/23 00:32:19;;;;;;;6.83;6.20;;;8.40;99.90;;;;;;5002436;28;20469;-67
2022/09/23 00:34:46;;;;;;;5.73;5.20;;;8.30;99.90;;;;;;5006035;28;20179;-68
2022/09/23 00:37:12;;;;;;;8.17;6.20;;;8.30;99.90;;;;;;5008456;28;20195;-67
2022/09/23 00:39:38;;;;;;;5.37;4.90;;;8.30;99.90;;;;;;5004061;28;20966;-67
2022/09/23 00:42:04;;;;;;;5.53;5.03;;;8.30;99.90;;;;;;5000228;28;20457;-66
2022/09/23 00:44:54;;;;;;;6.97;6.00;;;8.20;99.90;;;;;;5005366;28;20175;-66
2022/09/23 00:47:29;;;;;;;5.60;5.10;;;8.20;99.90;;;;;;5003510;28;20725;-66
2022/09/23 00:50:09;;;;;;;5.97;5.40;;;8.10;99.90;;;;;;5001821;28;20430;-66
2022/09/23 00:52:36;;;;;;;5.47;4.97;;;8.10;99.90;;;;;;5006327;28;20430;-66
2022/09/23 00:55:07;;;;;;;8.93;5.30;;;8.20;99.90;;;;;;5000621;28;20446;-66
2022/09/23 00:57:35;;;;;;;6.03;5.10;;;8.20;99.90;;;;;;5006266;28;20977;-66
2022/09/23 01:00:02;;;;;;;4.73;4.33;;;8.20;99.90;;;;;;5000382;28;20449;-66
2022/09/23 01:02:28;;;;;;;4.93;4.53;;;8.20;99.90;;;;;;4995893;28;20443;-68
2022/09/23 01:04:53;;;;;;;5.97;4.97;;;8.10;99.90;;;;;;4999084;28;20447;-66
2022/09/23 01:07:20;;;;;;;6.83;5.30;;;8.10;99.90;;;;;;5007432;28;20210;-66
2022/09/23 01:09:47;;;;;;;5.90;5.30;;;8.00;99.90;;;;;;4997319;28;20194;-66
2022/09/23 01:12:39;;;;;;;5.43;5.03;;;8.00;99.90;;;;;;4996953;28;20441;-66
2022/09/23 01:15:17;;;;;;;5.77;5.27;;;8.00;99.90;;;;;;4999061;28;20529;-66
2022/09/23 01:18:12;;;;;;;5.57;5.00;;;8.00;99.90;;;;;;5003603;28;20499;-66
2022/09/23 01:21:05;;;;;;;9.83;5.00;;;8.00;99.90;;;;;;5006295;28;20442;-66
2022/09/23 01:24:01;;;;;;;5.30;4.50;;;8.00;99.90;;;;;;5000694;28;20449;-66
2022/09/23 01:26:50;;;;;;;5.70;5.20;;;7.90;99.90;;;;;;5004162;28;20994;-66
2022/09/23 01:29:34;;;;;;;5.40;4.90;;;7.70;99.90;;;;;;5004676;28;20532;-66
2022/09/23 01:32:22;;;;;;;5.20;4.83;;;7.80;99.90;;;;;;5000903;28;20477;-66
2022/09/23 01:35:03;;;;;;;5.90;5.40;;;7.80;99.90;;;;;;4999881;28;20442;-65
2022/09/23 01:37:53;;;;;;;5.13;4.63;;;7.90;99.90;;;;;;4996601;28;20441;-66
2022/09/23 01:40:47;;;;;;;8.10;5.00;;;7.80;99.90;;;;;;4995306;28;20795;-66
2022/09/23 01:43:46;;;;;;;4.90;4.50;;;7.80;99.90;;;;;;5005398;28;20526;-67
2022/09/23 01:46:26;;;;;;;4.80;4.40;;;7.80;99.90;;;;;;4993931;28;20454;-66
2022/09/23 01:49:02;;;;;;;5.33;4.77;;;7.90;99.90;;;;;;4992725;28;20472;-66
2022/09/23 01:51:34;;;;;;;5.20;4.80;;;7.90;99.90;;;;;;5000892;28;20464;-66
2022/09/23 01:54:28;;;;;;;4.80;4.40;;;7.90;99.90;;;;;;5005180;28;20488;-66
2022/09/23 01:57:02;;;;;;;4.90;4.50;;;7.90;99.90;;;;;;5001912;28;20482;-66
2022/09/23 01:59:37;;;;;;;5.43;4.90;;;7.90;99.90;;;;;;5000956;28;20470;-66
2022/09/23 02:02:15;;;;;;;6.20;5.67;;;7.80;99.90;;;;;;5001764;28;20524;-67
2022/09/23 02:04:56;;;;;;;5.47;5.00;;;7.80;99.90;;;;;;4997368;28;20442;-66
2022/09/23 02:07:24;;;;;;;5.23;4.77;;;7.80;99.90;;;;;;5005614;28;21075;-66
2022/09/23 02:09:56;;;;;;;5.37;4.97;;;7.80;99.90;;;;;;4996633;28;20442;-65
2022/09/23 02:12:27;;;;;;;6.67;4.53;;;7.80;99.90;;;;;;4997143;28;20493;-66
2022/09/23 02:15:03;;;;;;;6.50;5.90;;;7.70;99.90;;;;;;4995123;28;20445;-66
2022/09/23 02:18:08;;;;;;;5.67;5.17;;;7.70;99.90;;;;;;5003551;28;20457;-66
2022/09/23 02:20:38;;;;;;;4.63;4.23;;;7.70;99.90;;;;;;4975017;28;20529;-66
2022/09/23 02:23:06;;;;;;;6.90;5.40;;;7.70;99.90;;;;;;5006701;28;20439;-66
2022/09/23 02:25:45;;;;;;;5.30;4.90;;;7.70;99.90;;;;;;5004262;28;20449;-66
2022/09/23 02:28:15;;;;;;;5.57;4.93;;;7.60;99.90;;;;;;5004951;28;20492;-65
2022/09/23 02:30:48;;;;;;;5.00;4.70;;;7.60;99.90;;;;;;5008123;28;20440;-66
2022/09/23 02:33:22;;;;;;;5.80;5.30;;;7.60;99.90;;;;;;4994861;28;20460;-66
2022/09/23 02:35:54;;;;;;;6.80;5.80;;;7.50;99.90;;;;;;4993699;28;21001;-65
2022/09/23 02:38:42;;;;;;;5.70;5.30;;;7.50;99.90;;;;;;5001582;28;20877;-66
2022/09/23 02:41:14;;;;;;;8.20;5.53;;;7.50;99.90;;;;;;5008153;28;20429;-66
2022/09/23 02:43:49;;;;;;;5.77;5.27;;;7.50;99.90;;;;;;5003792;28;20430;-66
2022/09/23 02:46:15;;;;;;;5.20;4.77;;;7.50;99.90;;;;;;4992381;28;20535;-66
2022/09/23 02:48:47;;;;;;;5.13;4.70;;;7.40;99.90;;;;;;5003412;28;20950;-66
2022/09/23 02:51:12;;;;;;;5.63;5.17;;;7.40;99.90;;;;;;5011426;28;20809;-66
2022/09/23 02:53:38;;;;;;;5.30;4.90;;;7.40;99.90;;;;;;5001923;28;20449;-66
2022/09/23 02:56:19;;;;;;;5.00;4.47;;;7.40;99.90;;;;;;4996616;28;20251;-66
2022/09/23 02:58:48;;;;;;;6.33;4.93;;;7.40;99.90;;;;;;5001872;28;20489;-66
2022/09/23 03:01:51;;;;;;;5.53;4.70;;;7.40;99.90;;;;;;5005961;28;20444;-65
2022/09/23 03:04:25;;;;;;;4.90;4.40;;;7.30;99.90;;;;;;5006502;28;20433;-66
2022/09/23 03:06:53;;;;;;;7.10;4.80;;;7.30;99.90;;;;;;5001939;28;20808;-66
2022/09/23 03:09:37;;;;;;;5.70;5.20;;;7.30;99.90;;;;;;5002956;28;20533;-65
2022/09/23 03:12:25;;;;;;;5.33;4.83;;;7.30;99.90;;;;;;5005733;28;20511;-66
2022/09/23 03:15:02;;;;;;;7.73;5.20;;;7.20;99.90;;;;;;5004955;28;20812;-66
2022/09/23 03:17:33;;;;;;;6.20;5.70;;;7.30;99.90;;;;;;5002983;28;20446;-66
2022/09/23 03:20:05;;;;;;;5.20;4.80;;;7.30;99.90;;;;;;4996651;28;20505;-66
2022/09/23 03:22:41;;;;;;;6.27;5.67;;;7.30;99.90;;;;;;5006543;28;20448;-66
2022/09/23 03:25:12;;;;;;;6.93;6.10;;;7.30;99.90;;;;;;5002652;28;20947;-66
2022/09/23 03:27:41;;;;;;;6.60;5.90;;;7.40;99.90;;;;;;4996156;28;20501;-66
2022/09/23 03:30:08;;;;;;;5.80;5.30;;;7.40;99.90;;;;;;5004128;28;20435;-66
2022/09/23 03:32:35;;;;;;;5.47;5.07;;;7.40;99.90;;;;;;5005198;28;20465;-65
2022/09/23 03:35:05;;;;;;;5.93;5.40;;;7.40;99.90;;;;;;5001766;28;20847;-66
2022/09/23 03:37:45;;;;;;;5.70;5.20;;;7.30;99.90;;;;;;5004837;28;20446;-66
2022/09/23 03:40:11;;;;;;;5.00;4.57;;;7.30;99.90;;;;;;4998162;28;20434;-66
2022/09/23 03:42:37;;;;;;;5.50;5.00;;;7.20;99.90;;;;;;5000464;28;20434;-66
2022/09/23 03:45:08;;;;;;;6.47;5.87;;;7.20;99.90;;;;;;5004841;28;20187;-66
2022/09/23 03:47:34;;;;;;;9.90;6.60;;;7.20;99.90;;;;;;5000663;28;20446;-66
2022/09/23 03:49:59;;;;;;;7.10;6.50;;;7.10;99.90;;;;;;4997993;28;20481;-66
2022/09/23 03:52:26;;;;;;;6.20;5.60;;;7.10;99.90;;;;;;5001048;28;20469;-66
2022/09/23 03:54:52;;;;;;;10.13;6.60;;;7.10;99.90;;;;;;5003884;28;20625;-66
2022/09/23 03:57:20;;;;;;;6.87;6.27;;;7.10;99.90;;;;;;5056840;23;20545;-72
2022/09/23 03:59:47;;;;;;;7.53;6.90;;;7.10;99.90;;;;;;5048546;28;20548;-72
2022/09/23 04:02:15;;;;;;;6.87;6.23;;;7.10;99.90;;;;;;5042296;28;20427;-72
2022/09/23 04:04:41;;;;;;;6.80;5.67;;;7.10;99.90;;;;;;5045340;28;20428;-71
2022/09/23 04:07:06;;;;;;;6.97;6.17;;;7.10;99.90;;;;;;5051606;28;20478;-71
2022/09/23 04:09:32;;;;;;;6.10;5.60;;;7.10;99.90;;;;;;5050583;28;20464;-72
2022/09/23 04:11:58;;;;;;;6.60;5.93;;;7.10;99.90;;;;;;5049590;28;20201;-70
2022/09/23 04:14:24;;;;;;;6.00;5.50;;;7.10;99.90;;;;;;5044861;28;20178;-70
2022/09/23 04:16:49;;;;;;;6.50;5.90;;;7.10;99.90;;;;;;5052043;28;20204;-70
2022/09/23 04:19:16;;;;;;;6.37;5.83;;;7.00;99.90;;;;;;5049990;28;20189;-71
2022/09/23 04:21:43;;;;;;;5.67;5.17;;;7.00;99.90;;;;;;5049867;28;20282;-71
2022/09/23 04:24:10;;;;;;;7.30;6.70;;;6.90;99.90;;;;;;5049652;28;21803;-70
2022/09/23 04:26:37;;;;;;;6.80;6.20;;;6.90;99.90;;;;;;5047750;28;20514;-71
2022/09/23 04:29:06;;;;;;;7.40;6.47;;;6.90;99.90;;;;;;5041017;28;20460;-72
2022/09/23 04:31:33;;;;;;;6.30;5.70;;;6.90;99.90;;;;;;5049205;28;20578;-70
2022/09/23 04:33:59;;;;;;;7.60;6.90;;;6.90;99.90;;;;;;5049241;28;20428;-72
2022/09/23 04:36:24;;;;;;;6.10;5.57;;;6.90;99.90;;;;;;5049629;28;20514;-71
2022/09/23 04:38:50;;;;;;;6.80;6.20;;;7.00;99.90;;;;;;5049296;28;20439;-70
2022/09/23 04:41:17;;;;;;;8.00;6.67;;;6.90;99.90;;;;;;5051895;28;20177;-71
2022/09/23 04:43:43;;;;;;;7.63;6.93;;;6.90;99.90;;;;;;5050233;28;20186;-67
2022/09/23 04:46:10;;;;;;;7.33;6.67;;;6.90;99.90;;;;;;5042017;28;20636;-72
2022/09/23 04:48:38;;;;;;;6.53;6.03;;;6.90;99.90;;;;;;5048402;28;21003;-71
2022/09/23 04:51:05;;;;;;;10.00;9.00;;;6.90;99.90;;;;;;5048680;28;20436;-70
2022/09/23 04:53:31;;;;;;;8.43;7.40;;;6.90;99.90;;;;;;5049039;28;20947;-68
2022/09/23 04:56:10;;;;;;;8.53;7.20;;;6.90;99.90;;;;;;5041064;28;20464;-72
2022/09/23 04:58:35;;;;;;;7.23;6.63;;;6.90;99.90;;;;;;5050000;28;20651;-71
2022/09/23 05:01:23;;;;;;;7.33;6.43;;;6.90;99.90;;;;;;5050013;28;20428;-72
2022/09/23 05:03:49;;;;;;;6.97;6.37;;;6.90;99.90;;;;;;5050500;28;20264;-71
2022/09/23 05:06:15;;;;;;;7.40;6.70;;;6.90;99.90;;;;;;5046157;28;20533;-71
2022/09/23 05:08:46;;;;;;;7.97;7.37;;;6.90;99.90;;;;;;5043250;28;22655;-70
2022/09/23 05:11:12;;;;;;;7.40;6.67;;;6.90;99.90;;;;;;5052010;28;20183;-71
2022/09/23 05:13:37;;;;;;;7.20;6.50;;;6.80;99.90;;;;;;5049297;28;20428;-71
2022/09/23 05:16:09;;;;;;;11.00;8.37;;;6.90;99.90;;;;;;5050328;28;20691;-71
2022/09/23 05:18:36;;;;;;;8.27;7.47;;;6.90;99.90;;;;;;5039486;28;20186;-72
2022/09/23 05:21:02;;;;;;;11.70;9.20;;;7.00;99.90;;;;;;5038069;28;21024;-70
2022/09/23 05:23:28;;;;;;;8.83;8.00;;;7.00;99.90;;;;;;5045706;28;20498;-72
2022/09/23 05:25:59;;;;;;;7.37;6.67;;;7.00;99.90;;;;;;5049350;28;20478;-72
2022/09/23 05:28:31;;;;;;;7.13;6.53;;;7.10;99.90;;;;;;5048739;28;20459;-70
2022/09/23 05:31:04;;;;;;;8.77;7.00;;;7.20;99.90;;;;;;5048312;28;20848;-71
2022/09/23 05:33:31;;;;;;;13.40;9.30;;;7.20;99.90;;;;;;5051506;28;21003;-72
2022/09/23 05:35:57;;;;;;;7.60;6.80;;;7.30;99.90;;;;;;5046813;28;20513;-70
2022/09/23 05:38:23;;;;;;;7.47;6.83;;;7.30;99.90;;;;;;5039740;28;20440;-72
2022/09/23 05:41:00;;;;;;;13.07;9.90;;;7.40;99.90;;;;;;5046809;28;20174;-71
2022/09/23 05:43:26;;;;;;;9.03;8.07;;;7.40;99.90;;;;;;5044975;28;20551;-72
2022/09/23 05:46:03;;;;;;;9.00;8.03;;;7.40;99.90;;;;;;5048698;28;20960;-73
2022/09/23 05:48:33;;;;;;;7.10;6.40;;;7.60;99.90;;;;;;5044000;28;20468;-72
2022/09/23 05:50:59;;;;;;;7.40;6.67;;;7.70;99.90;;;;;;5045852;28;20456;-73
2022/09/23 05:53:25;;;;;;;10.33;7.03;;;7.90;99.90;;;;;;5049295;28;21133;-73
2022/09/23 05:55:53;;;;;;;8.30;6.53;;;8.00;99.90;;;;;;5047955;28;20474;-73
2022/09/23 05:58:19;;;;;;;6.20;5.70;;;8.10;99.90;;;;;;5040135;28;20437;-72
2022/09/23 06:00:44;;;;;;;7.27;6.67;;;8.20;99.90;;;;;;5042716;28;20967;-71
2022/09/23 06:03:14;;;;;;;7.60;6.90;;;8.30;99.90;;;;;;5045693;28;20662;-71
2022/09/23 06:05:39;;;;;;;7.73;6.90;;;8.50;99.90;;;;;;5047623;28;20201;-72
2022/09/23 06:08:06;;;;;;;7.40;6.70;;;8.70;99.90;;;;;;5049361;28;20582;-71
2022/09/23 06:10:36;;;;;;;7.70;7.00;;;8.90;99.90;;;;;;5047568;28;20180;-72
2022/09/23 06:13:01;;;;;;;7.97;7.23;;;9.10;99.90;;;;;;5049370;28;20446;-72
2022/09/23 06:15:27;;;;;;;6.57;5.97;;;9.40;99.90;;;;;;5044828;28;20433;-71
2022/09/23 06:17:52;;;;;;;6.80;5.70;;;9.60;99.90;;;;;;5048104;28;20240;-71
2022/09/23 06:20:18;;;;;;;7.00;6.40;;;9.80;99.90;;;;;;5049350;28;20212;-71
2022/09/23 06:22:43;;;;;;;7.40;6.70;;;9.90;99.90;;;;;;5050236;28;20186;-71
2022/09/23 06:25:10;;;;;;;6.43;5.67;;;10.10;99.90;;;;;;5044112;28;20223;-72
2022/09/23 06:27:35;;;;;;;7.80;5.93;;;10.20;99.90;;;;;;5046334;28;20205;-72
2022/09/23 06:30:01;;;;;;;5.90;5.33;;;10.40;99.90;;;;;;5053057;28;20440;-71
2022/09/23 06:32:27;;;;;;;6.13;5.63;;;10.50;99.90;;;;;;5049978;28;20639;-71
2022/09/23 06:34:52;;;;;;;10.40;6.10;;;10.70;99.90;;;;;;5055810;28;20259;-70
2022/09/23 06:37:18;;;;;;;6.50;6.00;;;10.80;99.90;;;;;;5053358;28;20201;-71
2022/09/23 06:39:43;;;;;;;7.40;6.63;;;10.90;99.90;;;;;;5051202;28;20185;-72
2022/09/23 06:42:09;;;;;;;6.63;5.80;;;11.10;99.90;;;;;;5035960;28;20197;-68
2022/09/23 06:44:34;;;;;;;6.93;6.10;;;11.30;99.90;;;;;;5012779;28;21070;-70
2022/09/23 06:46:59;;;;;;;6.27;5.77;;;11.40;99.90;;;;;;5028067;28;20315;-72
2022/09/23 06:49:25;;;;;;;5.73;5.20;;;11.50;99.90;;;;;;5041489;28;20202;-72
2022/09/23 06:51:51;;;;;;;6.67;6.07;;;11.60;99.90;;;;;;5041545;28;21049;-71
2022/09/23 06:54:16;;;;;;;11.20;9.30;;;11.80;99.90;;;;;;5038099;28;20263;-71
2022/09/23 06:56:46;;;;;;;7.30;6.10;;;11.90;99.90;;;;;;5039062;28;20208;-69
2022/09/23 06:59:15;;;;;;;8.70;6.17;;;12.00;99.90;;;;;;5038008;28;20289;-71
2022/09/23 07:01:41;;;;;;;10.30;6.03;;;12.10;99.90;;;;;;5043108;28;20440;-72
2022/09/23 07:04:09;;;;;;;5.87;5.37;;;12.20;99.90;;;;;;5033183;28;20515;-70
2022/09/23 07:06:34;;;;;;;4.57;4.17;;;12.20;99.90;;;;;;5046029;28;20483;-72
2022/09/23 07:09:00;;;;;;;11.93;5.90;;;12.10;99.90;;;;;;5045187;28;20459;-71
2022/09/23 07:11:26;;;;;;;14.13;8.00;;;12.00;99.90;;;;;;5034842;28;20432;-71
2022/09/23 07:13:51;;;;;;;4.87;4.47;;;11.90;99.90;;;;;;5038047;28;20261;-70
2022/09/23 07:16:17;;;;;;;5.30;4.73;;;12.00;99.90;;;;;;5037536;28;20209;-71
2022/09/23 07:18:43;;;;;;;4.50;4.20;;;11.90;99.90;;;;;;5040173;28;20186;-72
2022/09/23 07:21:17;;;;;;;4.47;4.13;;;12.00;99.90;;;;;;5046130;28;20194;-71
2022/09/23 07:23:44;;;;;;;8.27;6.60;;;12.10;99.90;;;;;;5035328;28;20991;-71
2022/09/23 07:26:11;;;;;;;9.60;5.30;;;12.30;99.90;;;;;;5040376;28;20444;-72
2022/09/23 07:28:37;;;;;;;6.00;5.40;;;12.70;99.90;;;;;;5047276;28;20551;-72
2022/09/23 07:31:08;;;;;;;5.13;4.40;;;13.00;99.90;;;;;;5042135;28;20802;-70
2022/09/23 07:33:39;;;;;;;4.97;4.67;;;13.30;99.90;;;;;;5039250;28;20917;-71
2022/09/23 07:36:08;;;;;;;5.60;5.10;;;13.70;99.90;;;;;;5038706;28;20823;-71
2022/09/23 07:38:35;;;;;;;11.37;5.63;;;14.00;99.90;;;;;;5041327;28;20435;-70
2022/09/23 07:41:07;;;;;;;16.67;5.20;;;14.10;99.90;;;;;;5041358;28;20490;-71
2022/09/23 07:43:34;;;;;;;7.30;5.73;;;14.00;99.90;;;;;;5040908;28;20439;-71
2022/09/23 07:46:10;;;;;;;7.17;5.20;;;13.80;99.90;;;;;;5039611;28;20551;-71
2022/09/23 07:48:36;;;;;;;6.53;5.00;;;13.60;99.90;;;;;;5041724;28;20904;-68
2022/09/23 07:51:10;;;;;;;7.37;4.30;;;13.80;99.90;;;;;;5046885;28;20516;-71
2022/09/23 07:53:36;;;;;;;5.40;4.90;;;13.90;99.90;;;;;;5041558;28;20451;-72
2022/09/23 07:56:05;;;;;;;11.33;5.33;;;14.00;99.90;;;;;;5038222;28;21082;-71
2022/09/23 07:58:31;;;;;;;8.23;5.23;;;13.90;99.90;;;;;;5047872;28;20192;-72
2022/09/23 08:01:10;;;;;;;6.03;4.87;;;14.00;99.90;;;;;;5042604;28;20459;-70
2022/09/23 08:03:37;;;;;;;4.30;3.97;;;14.20;99.90;;;;;;5033760;28;20479;-69
2022/09/23 08:06:11;;;;;;;4.93;4.30;;;14.20;99.90;;;;;;5043302;28;20455;-70
2022/09/23 08:08:39;;;;;;;5.93;5.10;;;14.50;99.90;;;;;;5045404;28;20495;-71
2022/09/23 08:11:08;;;;;;;4.73;4.33;;;14.40;99.90;;;;;;5045837;28;20437;-70
2022/09/23 08:13:34;;;;;;;4.93;4.53;;;14.40;99.90;;;;;;5038952;28;20443;-71
2022/09/23 08:16:00;;;;;;;5.27;4.60;;;14.20;99.90;;;;;;5046743;28;20456;-71
2022/09/23 08:18:25;;;;;;;5.20;4.80;;;14.10;99.90;;;;;;5046490;28;20188;-70
2022/09/23 08:20:51;;;;;;;20.80;6.90;;;14.00;99.90;;;;;;5037405;28;20193;-72
2022/09/23 08:23:17;;;;;;;13.23;5.77;;;14.00;99.90;;;;;;5036208;28;20526;-72
2022/09/23 08:25:46;;;;;;;6.00;5.27;;;14.30;99.90;;;;;;5037865;28;20202;-71
2022/09/23 08:28:17;;;;;;;5.90;5.30;;;14.60;99.90;;;;;;5031368;28;21253;-71
2022/09/23 08:30:48;;;;;;;4.27;3.97;;;14.50;99.90;;;;;;5044045;28;20439;-71
2022/09/23 08:33:14;;;;;;;6.33;4.00;;;14.70;99.90;;;;;;5040628;28;20443;-71
2022/09/23 08:35:39;;;;;;;3.83;3.53;;;14.70;99.90;;;;;;5048199;28;21024;-70
2022/09/23 08:38:06;;;;;;;5.30;4.80;;;14.90;99.90;;;;;;5043409;28;20440;-70
2022/09/23 08:40:37;;;;;;;6.67;4.27;;;15.00;99.90;;;;;;5045238;28;20186;-70
2022/09/23 08:43:06;;;;;;;4.63;4.10;;;15.10;99.90;;;;;;5040799;28;20928;-71
2022/09/23 08:45:33;;;;;;;5.30;4.60;;;15.30;99.90;;;;;;5047466;28;20926;-71
2022/09/23 08:48:16;;;;;;;4.80;4.40;;;15.60;99.90;;;;;;5045483;28;20510;-68
2022/09/23 08:50:46;;;;;;;4.73;4.33;;;15.90;99.90;;;;;;5040302;28;20454;-70
2022/09/23 08:53:31;;;;;;;5.73;3.97;;;16.30;99.90;;;;;;5042056;28;20447;-69
2022/09/23 08:56:22;;;;;;;4.30;4.00;;;17.10;99.90;;;;;;5041998;28;20574;-68
2022/09/23 08:59:06;;;;;;;5.47;3.63;;;17.30;99.90;;;;;;5038614;28;20522;-70
2022/09/23 09:01:38;;;;;;;3.93;3.60;;;16.70;99.90;;;;;;5035485;28;20879;-70
2022/09/23 09:04:16;;;;;;;4.60;3.70;;;16.40;99.90;;;;;;5043791;28;20834;-70
2022/09/23 09:07:12;;;;;;;3.97;3.67;;;16.50;99.90;;;;;;5040470;28;20551;-68
2022/09/23 09:09:53;;;;;;;3.97;3.67;;;16.90;99.90;;;;;;5042297;28;20471;-71
2022/09/23 09:12:43;;;;;;;4.33;4.03;;;18.10;99.90;;;;;;5041188;28;22693;-70
2022/09/23 09:15:26;;;;;;;3.20;3.00;;;18.60;99.90;;;;;;5040932;28;20436;-70
2022/09/23 09:18:00;;;;;;;3.83;3.47;;;19.10;99.90;;;;;;5044909;28;20446;-69
2022/09/23 09:20:38;;;;;;;4.70;3.00;;;19.60;98.20;;;;;;5040774;28;20437;-71
2022/09/23 09:23:10;;;;;;;3.53;3.23;;;20.10;96.70;;;;;;5041849;28;20475;-70
2022/09/23 09:25:43;;;;;;;3.63;2.93;;;20.60;95.10;;;;;;5041162;28;20463;-65
2022/09/23 09:28:21;;;;;;;4.80;2.80;;;21.40;93.40;;;;;;5043387;28;20486;-68
2022/09/23 09:30:52;;;;;;;3.67;3.37;;;21.80;92.00;;;;;;5046741;28;20435;-68
2022/09/23 09:33:23;;;;;;;4.10;3.70;;;22.20;90.60;;;;;;5036292;28;20488;-67
2022/09/23 09:36:13;;;;;;;3.50;3.00;;;22.20;90.10;;;;;;5045415;28;20460;-68
2022/09/23 09:38:39;;;;;;;3.77;3.40;;;23.00;88.50;;;;;;5041885;28;20538;-67
2022/09/23 09:41:16;;;;;;;3.60;3.30;;;23.60;87.80;;;;;;5043760;28;21016;-68
2022/09/23 09:43:47;;;;;;;3.93;3.63;;;24.50;84.80;;;;;;5044806;28;20184;-68
2022/09/23 09:46:43;;;;;;;3.90;3.70;;;23.20;84.50;;;;;;5045596;28;20488;-67
2022/09/23 09:49:25;;;;;;;5.90;3.63;;;23.10;86.10;;;;;;5043194;28;20572;-69
2022/09/23 09:52:21;;;;;;;4.17;3.80;;;24.30;83.00;;;;;;5044612;28;20448;-68
2022/09/23 09:54:49;;;;;;;3.70;3.27;;;25.00;78.90;;;;;;5045505;28;20957;-68
2022/09/23 09:57:17;;;;;;;3.03;2.77;;;25.20;77.90;;;;;;5042127;28;20994;-67
2022/09/23 09:59:43;;;;;;;3.87;3.50;;;25.40;76.40;;;;;;5047301;28;20448;-67
2022/09/23 10:02:13;;;;;;;3.93;3.63;;;25.20;75.40;;;;;;5047730;28;20447;-67
2022/09/23 10:04:40;;;;;;;3.40;3.17;;;26.30;72.70;;;;;;5046494;28;20192;-67
2022/09/23 10:07:12;;;;;;;4.00;3.60;;;27.40;68.50;;;;;;5049962;28;20463;-69
2022/09/23 10:09:41;;;;;;;4.80;3.33;;;27.40;65.90;;;;;;5043388;28;20507;-67
2022/09/23 10:12:19;;;;;;;5.60;3.40;;;27.80;61.80;;;;;;5043341;28;20821;-66
2022/09/23 10:14:46;;;;;;;3.20;3.00;;;28.50;60.50;;;;;;5047519;28;20431;-67
2022/09/23 10:17:19;;;;;;;3.50;3.30;;;28.10;58.60;;;;;;5042779;28;20993;-67
2022/09/23 10:19:48;;;;;;;3.27;2.97;;;28.60;59.40;;;;;;5049534;28;20467;-73
2022/09/23 10:22:28;;;;;;;3.33;3.00;;;29.70;56.00;;;;;;5047893;28;20964;-69
2022/09/23 10:24:56;;;;;;;3.33;3.03;;;31.10;53.90;;;;;;5046036;28;20439;-69
2022/09/23 10:27:30;;;;;;;3.00;2.80;;;31.60;51.80;;;;;;5042996;28;20562;-68
2022/09/23 10:30:02;;;;;;;4.80;2.77;;;32.00;49.30;;;;;;5045483;28;20539;-69
2022/09/23 10:32:42;;;;;;;3.50;3.20;;;31.30;48.60;;;;;;5038222;28;20448;-70
2022/09/23 10:35:08;;;;;;;5.73;5.30;;;32.20;47.60;;;;;;5046152;28;20436;-66
2022/09/23 10:37:48;;;;;;;3.40;3.20;;;32.40;46.40;;;;;;5044863;28;20479;-67
2022/09/23 10:49:20;;;;;;;3.47;3.20;;;32.00;44.60;;;;;;5046202;28;20470;-68
2022/09/23 10:52:03;;;;;;;4.00;3.73;;;32.70;44.50;;;;;;5047908;28;20439;-67
2022/09/23 10:54:34;;;;;;;3.77;3.57;;;34.30;42.10;;;;;;5043400;28;20448;-69
2022/09/23 11:00:15;;;;;;;4.60;2.97;;;33.40;42.40;;;;;;5043698;28;20490;-67
2022/09/23 11:03:11;;;;;;;3.67;3.20;;;35.00;39.60;;;;;;5049076;28;20431;-68
2022/09/23 11:06:13;;;;;;;4.40;4.00;;;35.00;38.80;;;;;;5042314;28;20463;-68
2022/09/23 11:09:04;;;;;;;3.63;3.43;;;31.00;41.10;;;;;;5049483;28;20497;-69
2022/09/23 11:11:43;;;;;;;3.50;2.90;;;28.50;44.60;;;;;;5044964;28;20435;-66
2022/09/23 11:14:30;;;;;;;4.13;3.83;;;27.20;46.80;;;;;;5051476;28;20827;-67
2022/09/23 11:17:14;;;;;;;4.30;4.00;;;26.60;48.50;;;;;;5047573;28;20888;-67
2022/09/23 11:20:16;;;;;;;4.07;3.50;;;26.20;48.10;;;;;;5038459;28;20744;-69
2022/09/23 11:23:07;;;;;;;5.13;4.63;;;25.20;49.80;;;;;;5043207;28;20498;-70
2022/09/23 11:25:41;;;;;;;3.80;3.50;;;25.50;50.90;;;;;;5039024;28;20466;-71
2022/09/23 11:28:29;;;;;;;4.40;4.10;;;26.80;49.00;;;;;;5050498;28;20428;-67
2022/09/23 11:31:05;;;;;;;3.53;3.33;;;27.30;48.10;;;;;;5048236;28;20447;-67
2022/09/23 11:33:51;;;;;;;3.20;3.00;;;28.80;46.80;;;;;;5046534;28;20436;-67
2022/09/23 11:36:32;;;;;;;3.80;3.50;;;30.90;43.80;;;;;;5039189;28;20455;-67
2022/09/23 11:39:04;;;;;;;4.20;3.50;;;31.50;42.80;;;;;;5050639;28;20826;-66
2022/09/23 11:41:35;;;;;;;6.60;3.73;;;33.40;41.10;;;;;;5047426;28;21028;-68
2022/09/23 11:44:22;;;;;;;4.93;3.77;;;32.90;40.30;;;;;;5048943;28;20439;-67
2022/09/23 11:47:11;;;;;;;3.33;3.13;;;32.20;41.20;;;;;;5043980;28;20471;-68
2022/09/23 11:49:41;;;;;;;3.80;3.50;;;32.60;41.30;;;;;;5035323;28;20490;-68
2022/09/23 11:52:32;;;;;;;3.40;3.20;;;33.80;41.00;;;;;;5037048;28;20432;-68
2022/09/23 11:55:23;;;;;;;5.30;3.30;;;33.40;39.60;;;;;;5043093;28;20432;-67
2022/09/23 11:58:09;;;;;;;5.07;4.77;;;32.40;40.90;;;;;;5044447;28;20450;-66
2022/09/23 12:00:38;;;;;;;4.83;4.40;;;31.80;41.10;;;;;;5038824;28;20442;-68
2022/09/23 12:03:29;;;;;;;6.13;3.97;;;32.40;40.60;;;;;;5046039;28;20432;-66
2022/09/23 12:06:04;;;;;;;5.03;4.63;;;34.40;39.20;;;;;;5043958;28;21126;-67
2022/09/23 12:08:37;;;;;;;4.83;4.07;;;35.60;37.20;;;;;;5049236;28;20502;-67
2022/09/23 12:11:37;;;;;;;6.20;4.60;;;36.30;36.40;;;;;;5038980;28;20547;-69
2022/09/23 12:14:02;;;;;;;4.10;3.80;;;37.30;35.70;;;;;;5044308;28;20444;-69
2022/09/23 12:16:58;;;;;;;4.10;3.80;;;38.70;33.90;;;;;;5045679;28;20981;-67
2022/09/23 12:19:45;;;;;;;4.13;3.83;;;39.50;32.80;;;;;;5036998;28;20295;-68
2022/09/23 12:22:35;;;;;;;4.53;4.10;;;39.90;31.80;;;;;;5049076;28;20439;-68
2022/09/23 12:25:16;;;;;;;4.50;4.20;;;39.40;31.50;;;;;;5050125;28;20443;-67
2022/09/23 12:27:46;;;;;;;4.20;3.90;;;37.70;32.30;;;;;;5041641;28;20428;-67
2022/09/23 12:30:28;;;;;;;4.00;3.80;;;36.50;32.90;;;;;;5049808;28;20913;-69
2022/09/23 12:33:13;;;;;;;4.00;3.70;;;35.50;32.90;;;;;;5044544;28;20447;-67
2022/09/23 12:35:43;;;;;;;4.60;3.70;;;35.20;34.00;;;;;;5045339;28;20456;-68
2022/09/23 12:38:35;;;;;;;5.00;4.53;;;35.90;33.90;;;;;;5044705;28;20459;-67
2022/09/23 12:41:17;;;;;;;4.83;3.80;;;36.70;33.10;;;;;;5041828;28;20440;-66
2022/09/23 12:43:53;;;;;;;3.80;3.50;;;36.60;32.80;;;;;;5043118;28;20994;-67
2022/09/23 12:46:24;;;;;;;4.40;4.00;;;36.90;32.50;;;;;;5042558;28;20452;-67
2022/09/23 12:48:56;;;;;;;6.17;4.73;;;37.30;32.30;;;;;;5043080;28;20435;-66
2022/09/23 12:51:22;;;;;;;6.30;5.70;;;36.80;31.50;;;;;;5039246;28;20436;-68
2022/09/23 12:53:53;;;;;;;4.70;4.17;;;33.20;33.90;;;;;;5045344;28;20957;-67
2022/09/23 12:56:46;;;;;;;4.80;4.40;;;31.50;36.60;;;;;;5043692;28;20833;-67
2022/09/23 12:59:15;;;;;;;5.30;4.33;;;30.40;37.60;;;;;;5043413;28;20567;-67
2022/09/23 13:01:41;;;;;;;5.10;4.50;;;28.80;39.30;;;;;;5046295;28;20436;-66
2022/09/23 13:07:15;;;;;;;5.10;4.37;;;29.50;39.20;;;;;;5045734;28;20458;-67
2022/09/23 13:09:46;;;;;;;6.90;3.97;;;28.30;40.10;;;;;;5040577;28;20547;-68
2022/09/23 13:12:19;;;;;;;4.60;4.23;;;30.40;39.40;;;;;;5044363;28;20474;-68
2022/09/23 13:14:48;;;;;;;4.63;4.20;;;31.90;37.70;;;;;;5041271;28;20436;-67
2022/09/23 13:17:29;;;;;;;4.60;4.30;;;30.90;37.70;;;;;;5050089;28;20530;-66
2022/09/23 13:20:19;;;;;;;4.60;4.13;;;30.20;39.70;;;;;;5046134;28;20479;-68
2022/09/23 13:22:53;;;;;;;5.33;4.83;;;30.90;38.70;;;;;;5043432;28;20433;-67
2022/09/23 13:25:23;;;;;;;5.77;4.97;;;30.90;38.30;;;;;;5042932;28;20967;-67
2022/09/23 13:27:52;;;;;;;4.23;3.83;;;30.90;38.10;;;;;;5038544;28;20622;-67
2022/09/23 13:30:22;;;;;;;5.13;4.73;;;30.00;38.80;;;;;;5038710;28;20933;-67
2022/09/23 13:32:58;;;;;;;6.23;4.20;;;29.50;39.60;;;;;;5040759;28;20437;-67
2022/09/23 13:35:29;;;;;;;4.80;4.40;;;28.30;41.70;;;;;;5046183;28;20528;-67